sensor_id;sensor_type;location;lat;lon;timestamp;temperature;humidity
49236;DHT22;35067;48.134;8.378;2022-08-24T00:01:44;13.40;87.10
49236;DHT22;35067;48.134;8.378;2022-08-24T00:03:45;13.40;87.50
49236;DHT22;35067;48.134;8.378;2022-08-24T00:05:46;13.40;87.60
49236;DHT22;35067;48.134;8.378;2022-08-24T00:07:48;13.40;89.10
49236;DHT22;35067;48.134;8.378;2022-08-24T00:09:49;13.30;88.30
49236;DHT22;35067;48.134;8.378;2022-08-24T00:11:50;13.30;88.50
49236;DHT22;35067;48.134;8.378;2022-08-24T00:13:51;13.30;88.90
49236;DHT22;35067;48.134;8.378;2022-08-24T00:15:52;13.20;89.30
49236;DHT22;35067;48.134;8.378;2022-08-24T00:17:53;13.20;89.90
49236;DHT22;35067;48.134;8.378;2022-08-24T00:19:53;13.20;90.10
49236;DHT22;35067;48.134;8.378;2022-08-24T00:21:54;13.20;90.00
49236;DHT22;35067;48.134;8.378;2022-08-24T00:23:55;13.20;90.10
49236;DHT22;35067;48.134;8.378;2022-08-24T00:25:56;13.20;90.20
49236;DHT22;35067;48.134;8.378;2022-08-24T00:27:57;13.20;90.20
49236;DHT22;35067;48.134;8.378;2022-08-24T00:29:57;13.10;90.20
49236;DHT22;35067;48.134;8.378;2022-08-24T00:31:58;13.10;90.10
49236;DHT22;35067;48.134;8.378;2022-08-24T00:33:59;13.10;90.00
49236;DHT22;35067;48.134;8.378;2022-08-24T00:35:59;13.10;89.90
49236;DHT22;35067;48.134;8.378;2022-08-24T00:38:00;13.20;90.10
49236;DHT22;35067;48.134;8.378;2022-08-24T00:40:02;13.10;90.20
49236;DHT22;35067;48.134;8.378;2022-08-24T00:42:03;13.10;90.00
49236;DHT22;35067;48.134;8.378;2022-08-24T00:44:05;13.10;90.00
49236;DHT22;35067;48.134;8.378;2022-08-24T00:46:17;13.10;89.70
49236;DHT22;35067;48.134;8.378;2022-08-24T00:48:23;13.10;89.90
49236;DHT22;35067;48.134;8.378;2022-08-24T00:50:34;13.10;89.70
49236;DHT22;35067;48.134;8.378;2022-08-24T00:52:45;13.10;89.50
49236;DHT22;35067;48.134;8.378;2022-08-24T00:54:53;13.10;89.60
49236;DHT22;35067;48.134;8.378;2022-08-24T00:56:58;13.10;89.90
49236;DHT22;35067;48.134;8.378;2022-08-24T00:59:04;13.10;89.90
49236;DHT22;35067;48.134;8.378;2022-08-24T01:01:07;13.10;90.10
49236;DHT22;35067;48.134;8.378;2022-08-24T01:03:08;13.00;90.30
49236;DHT22;35067;48.134;8.378;2022-08-24T01:05:11;12.90;90.60
49236;DHT22;35067;48.134;8.378;2022-08-24T01:07:12;12.90;90.90
49236;DHT22;35067;48.134;8.378;2022-08-24T01:09:12;12.90;90.90
49236;DHT22;35067;48.134;8.378;2022-08-24T01:11:17;12.90;90.80
49236;DHT22;35067;48.134;8.378;2022-08-24T01:13:19;12.90;91.50
49236;DHT22;35067;48.134;8.378;2022-08-24T01:15:20;12.80;91.20
49236;DHT22;35067;48.134;8.378;2022-08-24T01:17:22;12.70;91.40
49236;DHT22;35067;48.134;8.378;2022-08-24T01:19:47;12.70;91.60
49236;DHT22;35067;48.134;8.378;2022-08-24T01:23:58;12.70;91.60
49236;DHT22;35067;48.134;8.378;2022-08-24T01:26:00;12.70;91.70
49236;DHT22;35067;48.134;8.378;2022-08-24T01:28:05;12.70;91.60
49236;DHT22;35067;48.134;8.378;2022-08-24T01:30:11;12.70;91.80
49236;DHT22;35067;48.134;8.378;2022-08-24T01:32:13;12.60;91.90
49236;DHT22;35067;48.134;8.378;2022-08-24T01:34:14;12.60;91.90
49236;DHT22;35067;48.134;8.378;2022-08-24T01:36:35;12.60;92.10
49236;DHT22;35067;48.134;8.378;2022-08-24T01:38:36;12.60;92.10
49236;DHT22;35067;48.134;8.378;2022-08-24T01:40:46;12.60;92.20
49236;DHT22;35067;48.134;8.378;2022-08-24T01:42:50;12.60;92.20
49236;DHT22;35067;48.134;8.378;2022-08-24T01:44:51;12.60;92.30
49236;DHT22;35067;48.134;8.378;2022-08-24T01:46:54;12.60;92.20
49236;DHT22;35067;48.134;8.378;2022-08-24T01:48:56;12.60;92.20
49236;DHT22;35067;48.134;8.378;2022-08-24T01:50:59;12.60;91.90
49236;DHT22;35067;48.134;8.378;2022-08-24T01:53:03;12.50;92.30
49236;DHT22;35067;48.134;8.378;2022-08-24T01:55:10;12.50;92.40
49236;DHT22;35067;48.134;8.378;2022-08-24T01:57:11;12.40;92.40
49236;DHT22;35067;48.134;8.378;2022-08-24T01:59:12;12.50;92.70
49236;DHT22;35067;48.134;8.378;2022-08-24T02:01:15;12.40;92.70
49236;DHT22;35067;48.134;8.378;2022-08-24T02:03:16;12.40;92.60
49236;DHT22;35067;48.134;8.378;2022-08-24T02:05:18;12.40;92.60
49236;DHT22;35067;48.134;8.378;2022-08-24T02:07:19;12.40;92.80
49236;DHT22;35067;48.134;8.378;2022-08-24T02:09:19;12.30;93.10
49236;DHT22;35067;48.134;8.378;2022-08-24T02:11:20;12.40;93.20
49236;DHT22;35067;48.134;8.378;2022-08-24T02:13:21;12.30;93.30
49236;DHT22;35067;48.134;8.378;2022-08-24T02:15:32;12.40;93.40
49236;DHT22;35067;48.134;8.378;2022-08-24T02:17:34;12.30;93.20
49236;DHT22;35067;48.134;8.378;2022-08-24T02:19:35;12.30;93.40
49236;DHT22;35067;48.134;8.378;2022-08-24T02:21:36;12.30;93.50
49236;DHT22;35067;48.134;8.378;2022-08-24T02:23:39;12.30;93.50
49236;DHT22;35067;48.134;8.378;2022-08-24T02:25:40;12.30;93.60
49236;DHT22;35067;48.134;8.378;2022-08-24T02:27:41;12.30;93.80
49236;DHT22;35067;48.134;8.378;2022-08-24T02:29:43;12.30;93.60
49236;DHT22;35067;48.134;8.378;2022-08-24T02:31:43;12.20;93.60
49236;DHT22;35067;48.134;8.378;2022-08-24T02:33:44;12.20;93.70
49236;DHT22;35067;48.134;8.378;2022-08-24T02:35:45;12.20;94.00
49236;DHT22;35067;48.134;8.378;2022-08-24T02:37:46;12.20;94.10
49236;DHT22;35067;48.134;8.378;2022-08-24T02:39:47;12.20;94.10
49236;DHT22;35067;48.134;8.378;2022-08-24T02:41:47;12.10;94.30
49236;DHT22;35067;48.134;8.378;2022-08-24T02:43:48;12.10;94.30
49236;DHT22;35067;48.134;8.378;2022-08-24T02:45:49;12.20;94.10
49236;DHT22;35067;48.134;8.378;2022-08-24T02:47:50;12.20;94.10
49236;DHT22;35067;48.134;8.378;2022-08-24T02:49:50;12.20;94.00
49236;DHT22;35067;48.134;8.378;2022-08-24T02:51:51;12.10;94.00
49236;DHT22;35067;48.134;8.378;2022-08-24T02:53:52;12.20;94.10
49236;DHT22;35067;48.134;8.378;2022-08-24T02:55:52;12.20;94.00
49236;DHT22;35067;48.134;8.378;2022-08-24T02:57:53;12.10;94.30
49236;DHT22;35067;48.134;8.378;2022-08-24T02:59:53;12.10;94.60
49236;DHT22;35067;48.134;8.378;2022-08-24T03:01:54;12.10;94.50
49236;DHT22;35067;48.134;8.378;2022-08-24T03:03:55;12.10;94.60
49236;DHT22;35067;48.134;8.378;2022-08-24T03:05:56;12.00;95.00
49236;DHT22;35067;48.134;8.378;2022-08-24T03:07:56;12.00;94.80
49236;DHT22;35067;48.134;8.378;2022-08-24T03:09:57;12.00;95.00
49236;DHT22;35067;48.134;8.378;2022-08-24T03:11:57;11.90;95.10
49236;DHT22;35067;48.134;8.378;2022-08-24T03:13:58;11.90;95.40
49236;DHT22;35067;48.134;8.378;2022-08-24T03:15:59;11.90;95.40
49236;DHT22;35067;48.134;8.378;2022-08-24T03:17:59;11.90;95.60
49236;DHT22;35067;48.134;8.378;2022-08-24T03:20:02;11.80;95.70
49236;DHT22;35067;48.134;8.378;2022-08-24T03:22:03;11.80;95.60
49236;DHT22;35067;48.134;8.378;2022-08-24T03:24:04;11.80;95.60
49236;DHT22;35067;48.134;8.378;2022-08-24T03:26:05;11.80;95.50
49236;DHT22;35067;48.134;8.378;2022-08-24T03:28:05;11.80;95.40
49236;DHT22;35067;48.134;8.378;2022-08-24T03:30:07;11.90;95.20
49236;DHT22;35067;48.134;8.378;2022-08-24T03:32:09;11.90;95.30
49236;DHT22;35067;48.134;8.378;2022-08-24T03:34:10;11.80;95.60
49236;DHT22;35067;48.134;8.378;2022-08-24T03:36:12;11.80;95.50
49236;DHT22;35067;48.134;8.378;2022-08-24T03:38:13;11.80;95.60
49236;DHT22;35067;48.134;8.378;2022-08-24T03:40:14;11.80;95.60
49236;DHT22;35067;48.134;8.378;2022-08-24T03:42:15;11.80;95.50
49236;DHT22;35067;48.134;8.378;2022-08-24T03:44:15;11.80;95.70
49236;DHT22;35067;48.134;8.378;2022-08-24T03:46:25;11.80;95.90
49236;DHT22;35067;48.134;8.378;2022-08-24T03:48:29;11.80;96.20
49236;DHT22;35067;48.134;8.378;2022-08-24T03:50:29;11.70;96.30
49236;DHT22;35067;48.134;8.378;2022-08-24T03:52:30;11.70;96.60
49236;DHT22;35067;48.134;8.378;2022-08-24T03:54:31;11.70;96.50
49236;DHT22;35067;48.134;8.378;2022-08-24T03:56:32;11.70;96.80
49236;DHT22;35067;48.134;8.378;2022-08-24T03:58:37;11.60;96.70
49236;DHT22;35067;48.134;8.378;2022-08-24T04:00:38;11.60;96.70
49236;DHT22;35067;48.134;8.378;2022-08-24T04:02:41;11.60;96.90
49236;DHT22;35067;48.134;8.378;2022-08-24T04:04:43;11.60;96.90
49236;DHT22;35067;48.134;8.378;2022-08-24T04:06:44;11.60;96.90
49236;DHT22;35067;48.134;8.378;2022-08-24T04:08:46;11.60;97.10
49236;DHT22;35067;48.134;8.378;2022-08-24T04:10:47;11.50;97.20
49236;DHT22;35067;48.134;8.378;2022-08-24T04:12:48;11.50;97.40
49236;DHT22;35067;48.134;8.378;2022-08-24T04:14:51;11.50;97.60
49236;DHT22;35067;48.134;8.378;2022-08-24T04:16:55;11.40;97.60
49236;DHT22;35067;48.134;8.378;2022-08-24T04:18:56;11.40;97.70
49236;DHT22;35067;48.134;8.378;2022-08-24T04:20:57;11.40;97.60
49236;DHT22;35067;48.134;8.378;2022-08-24T04:22:57;11.40;97.50
49236;DHT22;35067;48.134;8.378;2022-08-24T04:24:58;11.40;97.50
49236;DHT22;35067;48.134;8.378;2022-08-24T04:26:59;11.40;97.50
49236;DHT22;35067;48.134;8.378;2022-08-24T04:28:59;11.40;97.60
49236;DHT22;35067;48.134;8.378;2022-08-24T04:31:04;11.40;97.70
49236;DHT22;35067;48.134;8.378;2022-08-24T04:33:05;11.40;98.00
49236;DHT22;35067;48.134;8.378;2022-08-24T04:35:06;11.30;98.00
49236;DHT22;35067;48.134;8.378;2022-08-24T04:37:07;11.30;97.80
49236;DHT22;35067;48.134;8.378;2022-08-24T04:39:07;11.40;97.60
49236;DHT22;35067;48.134;8.378;2022-08-24T04:41:13;11.40;97.80
49236;DHT22;35067;48.134;8.378;2022-08-24T04:43:14;11.40;97.60
49236;DHT22;35067;48.134;8.378;2022-08-24T04:45:15;11.50;97.50
49236;DHT22;35067;48.134;8.378;2022-08-24T04:47:16;11.50;97.20
49236;DHT22;35067;48.134;8.378;2022-08-24T04:49:16;11.60;97.00
49236;DHT22;35067;48.134;8.378;2022-08-24T04:51:18;11.60;96.80
49236;DHT22;35067;48.134;8.378;2022-08-24T04:53:19;11.70;96.50
49236;DHT22;35067;48.134;8.378;2022-08-24T04:55:19;11.70;96.60
49236;DHT22;35067;48.134;8.378;2022-08-24T04:57:20;11.70;96.80
49236;DHT22;35067;48.134;8.378;2022-08-24T04:59:20;11.70;96.70
49236;DHT22;35067;48.134;8.378;2022-08-24T05:01:24;11.70;96.80
49236;DHT22;35067;48.134;8.378;2022-08-24T05:03:25;11.70;97.00
49236;DHT22;35067;48.134;8.378;2022-08-24T05:05:26;11.60;97.20
49236;DHT22;35067;48.134;8.378;2022-08-24T05:07:26;11.70;97.50
49236;DHT22;35067;48.134;8.378;2022-08-24T05:09:27;11.70;97.60
49236;DHT22;35067;48.134;8.378;2022-08-24T05:11:27;11.70;97.70
49236;DHT22;35067;48.134;8.378;2022-08-24T05:13:28;11.80;97.50
49236;DHT22;35067;48.134;8.378;2022-08-24T05:15:29;11.80;97.40
49236;DHT22;35067;48.134;8.378;2022-08-24T05:17:31;11.80;97.20
49236;DHT22;35067;48.134;8.378;2022-08-24T05:19:31;11.90;97.00
49236;DHT22;35067;48.134;8.378;2022-08-24T05:21:32;11.90;96.80
49236;DHT22;35067;48.134;8.378;2022-08-24T05:23:33;12.00;96.90
49236;DHT22;35067;48.134;8.378;2022-08-24T05:25:34;12.00;96.80
49236;DHT22;35067;48.134;8.378;2022-08-24T05:27:35;12.10;96.50
49236;DHT22;35067;48.134;8.378;2022-08-24T05:29:36;12.10;96.40
49236;DHT22;35067;48.134;8.378;2022-08-24T05:31:36;12.20;96.50
49236;DHT22;35067;48.134;8.378;2022-08-24T05:33:37;12.10;96.30
49236;DHT22;35067;48.134;8.378;2022-08-24T05:35:39;12.20;96.20
49236;DHT22;35067;48.134;8.378;2022-08-24T05:37:39;12.20;96.30
49236;DHT22;35067;48.134;8.378;2022-08-24T05:39:42;12.20;96.30
49236;DHT22;35067;48.134;8.378;2022-08-24T05:41:44;12.30;96.30
49236;DHT22;35067;48.134;8.378;2022-08-24T05:43:46;12.30;96.40
49236;DHT22;35067;48.134;8.378;2022-08-24T05:45:46;12.40;96.20
49236;DHT22;35067;48.134;8.378;2022-08-24T05:47:47;12.40;96.10
49236;DHT22;35067;48.134;8.378;2022-08-24T05:49:48;12.40;96.40
49236;DHT22;35067;48.134;8.378;2022-08-24T05:51:52;12.40;96.50
49236;DHT22;35067;48.134;8.378;2022-08-24T05:53:53;12.50;96.40
49236;DHT22;35067;48.134;8.378;2022-08-24T05:55:53;12.50;96.30
49236;DHT22;35067;48.134;8.378;2022-08-24T05:57:54;12.60;96.00
49236;DHT22;35067;48.134;8.378;2022-08-24T05:59:56;12.70;96.20
49236;DHT22;35067;48.134;8.378;2022-08-24T06:01:56;12.80;95.60
49236;DHT22;35067;48.134;8.378;2022-08-24T06:03:58;12.80;95.60
49236;DHT22;35067;48.134;8.378;2022-08-24T06:06:01;12.80;95.20
49236;DHT22;35067;48.134;8.378;2022-08-24T06:08:02;12.80;95.30
49236;DHT22;35067;48.134;8.378;2022-08-24T06:10:02;12.90;95.60
49236;DHT22;35067;48.134;8.378;2022-08-24T06:12:04;13.00;95.20
49236;DHT22;35067;48.134;8.378;2022-08-24T06:14:10;13.00;95.00
49236;DHT22;35067;48.134;8.378;2022-08-24T06:16:12;13.10;95.10
49236;DHT22;35067;48.134;8.378;2022-08-24T06:18:13;13.20;94.90
49236;DHT22;35067;48.134;8.378;2022-08-24T06:20:14;13.20;95.10
49236;DHT22;35067;48.134;8.378;2022-08-24T06:22:14;13.30;94.70
49236;DHT22;35067;48.134;8.378;2022-08-24T06:24:16;13.50;93.80
49236;DHT22;35067;48.134;8.378;2022-08-24T06:26:18;13.60;93.30
49236;DHT22;35067;48.134;8.378;2022-08-24T06:28:38;13.70;93.20
49236;DHT22;35067;48.134;8.378;2022-08-24T06:30:38;13.70;93.00
49236;DHT22;35067;48.134;8.378;2022-08-24T06:32:39;13.80;93.30
49236;DHT22;35067;48.134;8.378;2022-08-24T06:34:43;13.80;93.10
49236;DHT22;35067;48.134;8.378;2022-08-24T06:36:44;14.00;92.50
49236;DHT22;35067;48.134;8.378;2022-08-24T06:38:44;14.10;92.30
49236;DHT22;35067;48.134;8.378;2022-08-24T06:40:45;14.10;91.90
49236;DHT22;35067;48.134;8.378;2022-08-24T06:42:46;14.30;91.60
49236;DHT22;35067;48.134;8.378;2022-08-24T06:44:47;14.30;91.50
49236;DHT22;35067;48.134;8.378;2022-08-24T06:46:48;14.40;91.30
49236;DHT22;35067;48.134;8.378;2022-08-24T06:48:49;14.50;91.20
49236;DHT22;35067;48.134;8.378;2022-08-24T06:50:50;14.60;90.30
49236;DHT22;35067;48.134;8.378;2022-08-24T06:52:51;14.70;90.20
49236;DHT22;35067;48.134;8.378;2022-08-24T06:54:52;14.70;90.40
49236;DHT22;35067;48.134;8.378;2022-08-24T06:56:52;14.80;90.80
49236;DHT22;35067;48.134;8.378;2022-08-24T06:58:54;14.80;91.10
49236;DHT22;35067;48.134;8.378;2022-08-24T07:00:55;15.00;91.30
49236;DHT22;35067;48.134;8.378;2022-08-24T07:02:56;15.10;91.20
49236;DHT22;35067;48.134;8.378;2022-08-24T07:04:57;15.40;91.00
49236;DHT22;35067;48.134;8.378;2022-08-24T07:06:57;15.50;91.10
49236;DHT22;35067;48.134;8.378;2022-08-24T07:08:58;15.60;91.10
49236;DHT22;35067;48.134;8.378;2022-08-24T07:10:58;15.70;91.00
49236;DHT22;35067;48.134;8.378;2022-08-24T07:12:59;16.00;90.30
49236;DHT22;35067;48.134;8.378;2022-08-24T07:15:00;16.20;88.00
49236;DHT22;35067;48.134;8.378;2022-08-24T07:17:00;16.30;88.30
49236;DHT22;35067;48.134;8.378;2022-08-24T07:19:03;16.40;86.90
49236;DHT22;35067;48.134;8.378;2022-08-24T07:21:04;16.70;82.70
49236;DHT22;35067;48.134;8.378;2022-08-24T07:23:05;16.90;82.60
49236;DHT22;35067;48.134;8.378;2022-08-24T07:25:06;17.00;82.10
49236;DHT22;35067;48.134;8.378;2022-08-24T07:27:07;17.30;76.70
49236;DHT22;35067;48.134;8.378;2022-08-24T07:29:12;17.50;75.30
49236;DHT22;35067;48.134;8.378;2022-08-24T07:31:14;17.60;74.60
49236;DHT22;35067;48.134;8.378;2022-08-24T07:33:15;17.90;69.60
49236;DHT22;35067;48.134;8.378;2022-08-24T07:35:16;18.10;69.00
49236;DHT22;35067;48.134;8.378;2022-08-24T07:37:16;18.40;67.50
49236;DHT22;35067;48.134;8.378;2022-08-24T07:39:17;18.40;68.40
49236;DHT22;35067;48.134;8.378;2022-08-24T07:41:18;18.50;67.40
49236;DHT22;35067;48.134;8.378;2022-08-24T07:43:19;18.60;66.00
49236;DHT22;35067;48.134;8.378;2022-08-24T07:45:20;18.80;65.60
49236;DHT22;35067;48.134;8.378;2022-08-24T07:47:22;18.80;65.90
49236;DHT22;35067;48.134;8.378;2022-08-24T07:49:23;18.90;64.80
49236;DHT22;35067;48.134;8.378;2022-08-24T07:51:24;19.20;62.90
49236;DHT22;35067;48.134;8.378;2022-08-24T07:53:26;19.20;63.00
49236;DHT22;35067;48.134;8.378;2022-08-24T07:55:27;19.20;63.50
49236;DHT22;35067;48.134;8.378;2022-08-24T07:57:28;19.40;63.90
49236;DHT22;35067;48.134;8.378;2022-08-24T07:59:29;19.60;61.00
49236;DHT22;35067;48.134;8.378;2022-08-24T08:01:29;19.40;64.10
49236;DHT22;35067;48.134;8.378;2022-08-24T08:03:31;19.60;62.30
49236;DHT22;35067;48.134;8.378;2022-08-24T08:05:37;19.80;58.60
49236;DHT22;35067;48.134;8.378;2022-08-24T08:07:39;20.00;57.50
49236;DHT22;35067;48.134;8.378;2022-08-24T08:09:40;20.10;56.50
49236;DHT22;35067;48.134;8.378;2022-08-24T08:11:41;20.30;53.60
49236;DHT22;35067;48.134;8.378;2022-08-24T08:13:41;20.60;51.50
49236;DHT22;35067;48.134;8.378;2022-08-24T08:15:42;20.80;51.10
49236;DHT22;35067;48.134;8.378;2022-08-24T08:17:43;20.90;52.30
49236;DHT22;35067;48.134;8.378;2022-08-24T08:19:44;21.10;48.90
49236;DHT22;35067;48.134;8.378;2022-08-24T08:21:50;21.20;52.60
49236;DHT22;35067;48.134;8.378;2022-08-24T08:24:10;21.30;46.70
49236;DHT22;35067;48.134;8.378;2022-08-24T08:26:19;21.60;45.40
49236;DHT22;35067;48.134;8.378;2022-08-24T08:28:20;21.80;46.00
49236;DHT22;35067;48.134;8.378;2022-08-24T08:30:21;21.90;44.00
49236;DHT22;35067;48.134;8.378;2022-08-24T08:32:21;21.90;45.20
49236;DHT22;35067;48.134;8.378;2022-08-24T08:34:23;21.90;44.10
49236;DHT22;35067;48.134;8.378;2022-08-24T08:36:23;22.10;50.30
49236;DHT22;35067;48.134;8.378;2022-08-24T08:38:24;22.10;44.60
49236;DHT22;35067;48.134;8.378;2022-08-24T08:43:07;22.50;44.80
49236;DHT22;35067;48.134;8.378;2022-08-24T08:45:34;22.80;45.50
49236;DHT22;35067;48.134;8.378;2022-08-24T08:48:04;23.00;42.10
49236;DHT22;35067;48.134;8.378;2022-08-24T08:50:27;23.00;40.40
49236;DHT22;35067;48.134;8.378;2022-08-24T09:12:20;24.20;35.90
49236;DHT22;35067;48.134;8.378;2022-08-24T09:22:17;24.30;34.60
49236;DHT22;35067;48.134;8.378;2022-08-24T09:27:05;24.30;35.90
49236;DHT22;35067;48.134;8.378;2022-08-24T09:29:15;24.90;34.20
49236;DHT22;35067;48.134;8.378;2022-08-24T09:31:21;24.90;35.00
49236;DHT22;35067;48.134;8.378;2022-08-24T09:36:07;25.10;33.80
49236;DHT22;35067;48.134;8.378;2022-08-24T09:46:24;25.80;33.20
49236;DHT22;35067;48.134;8.378;2022-08-24T10:05:20;26.30;32.50
49236;DHT22;35067;48.134;8.378;2022-08-24T10:10:17;26.70;31.00
49236;DHT22;35067;48.134;8.378;2022-08-24T10:12:38;26.70;30.00
49236;DHT22;35067;48.134;8.378;2022-08-24T10:15:08;26.50;30.70
49236;DHT22;35067;48.134;8.378;2022-08-24T10:17:27;26.90;29.80
49236;DHT22;35067;48.134;8.378;2022-08-24T10:19:59;27.00;29.60
49236;DHT22;35067;48.134;8.378;2022-08-24T10:22:25;27.10;28.50
49236;DHT22;35067;48.134;8.378;2022-08-24T10:24:57;28.00;28.00
49236;DHT22;35067;48.134;8.378;2022-08-24T10:35:27;28.40;27.70
49236;DHT22;35067;48.134;8.378;2022-08-24T10:37:40;29.50;27.80
49236;DHT22;35067;48.134;8.378;2022-08-24T10:40:48;29.70;25.80
49236;DHT22;35067;48.134;8.378;2022-08-24T10:42:39;30.90;24.70
49236;DHT22;35067;48.134;8.378;2022-08-24T10:50:50;31.30;23.10
49236;DHT22;35067;48.134;8.378;2022-08-24T10:55:27;30.60;23.90
49236;DHT22;35067;48.134;8.378;2022-08-24T10:57:45;31.00;24.90
49236;DHT22;35067;48.134;8.378;2022-08-24T11:00:02;31.60;22.90
49236;DHT22;35067;48.134;8.378;2022-08-24T11:04:30;32.50;22.60
49236;DHT22;35067;48.134;8.378;2022-08-24T11:06:36;32.30;22.80
49236;DHT22;35067;48.134;8.378;2022-08-24T11:08:58;32.30;21.80
49236;DHT22;35067;48.134;8.378;2022-08-24T11:11:09;32.00;23.30
49236;DHT22;35067;48.134;8.378;2022-08-24T11:17:20;31.60;23.60
49236;DHT22;35067;48.134;8.378;2022-08-24T11:21:50;32.30;21.60
49236;DHT22;35067;48.134;8.378;2022-08-24T11:23:52;32.80;21.30
49236;DHT22;35067;48.134;8.378;2022-08-24T11:26:11;32.40;21.30
49236;DHT22;35067;48.134;8.378;2022-08-24T11:30:38;33.30;22.40
49236;DHT22;35067;48.134;8.378;2022-08-24T11:32:46;33.60;20.40
49236;DHT22;35067;48.134;8.378;2022-08-24T11:34:53;33.40;19.90
49236;DHT22;35067;48.134;8.378;2022-08-24T11:36:54;32.40;21.40
49236;DHT22;35067;48.134;8.378;2022-08-24T11:39:16;32.40;22.50
49236;DHT22;35067;48.134;8.378;2022-08-24T11:41:29;34.30;20.60
49236;DHT22;35067;48.134;8.378;2022-08-24T11:46:14;35.10;19.60
49236;DHT22;35067;48.134;8.378;2022-08-24T11:49:09;35.70;18.20
49236;DHT22;35067;48.134;8.378;2022-08-24T11:54:10;33.50;17.40
49236;DHT22;35067;48.134;8.378;2022-08-24T11:56:24;32.80;20.00
49236;DHT22;35067;48.134;8.378;2022-08-24T11:58:54;32.30;20.60
49236;DHT22;35067;48.134;8.378;2022-08-24T12:08:44;33.00;18.70
49236;DHT22;35067;48.134;8.378;2022-08-24T12:13:44;32.90;19.20
49236;DHT22;35067;48.134;8.378;2022-08-24T12:15:55;33.10;19.20
49236;DHT22;35067;48.134;8.378;2022-08-24T12:18:28;33.20;18.00
49236;DHT22;35067;48.134;8.378;2022-08-24T12:20:36;33.70;20.00
49236;DHT22;35067;48.134;8.378;2022-08-24T12:22:40;34.50;18.10
49236;DHT22;35067;48.134;8.378;2022-08-24T12:24:48;35.40;16.90
49236;DHT22;35067;48.134;8.378;2022-08-24T12:26:57;36.00;16.30
49236;DHT22;35067;48.134;8.378;2022-08-24T12:29:11;35.40;16.30
49236;DHT22;35067;48.134;8.378;2022-08-24T12:33:37;35.10;16.70
49236;DHT22;35067;48.134;8.378;2022-08-24T12:35:45;35.00;16.90
49236;DHT22;35067;48.134;8.378;2022-08-24T12:40:31;35.30;17.00
49236;DHT22;35067;48.134;8.378;2022-08-24T12:44:52;35.90;16.60
49236;DHT22;35067;48.134;8.378;2022-08-24T12:46:54;35.20;16.90
49236;DHT22;35067;48.134;8.378;2022-08-24T12:49:01;34.90;16.90
49236;DHT22;35067;48.134;8.378;2022-08-24T12:53:47;35.30;16.00
49236;DHT22;35067;48.134;8.378;2022-08-24T13:01:04;35.00;16.00
49236;DHT22;35067;48.134;8.378;2022-08-24T13:03:21;34.20;16.80
49236;DHT22;35067;48.134;8.378;2022-08-24T13:05:24;34.10;17.30
49236;DHT22;35067;48.134;8.378;2022-08-24T13:07:41;34.10;17.70
49236;DHT22;35067;48.134;8.378;2022-08-24T13:11:53;34.20;17.10
49236;DHT22;35067;48.134;8.378;2022-08-24T13:15:58;33.90;18.00
49236;DHT22;35067;48.134;8.378;2022-08-24T13:20:51;34.00;18.20
49236;DHT22;35067;48.134;8.378;2022-08-24T13:25:24;34.40;17.50
49236;DHT22;35067;48.134;8.378;2022-08-24T13:32:01;37.10;15.90
49236;DHT22;35067;48.134;8.378;2022-08-24T13:40:44;38.20;15.10
49236;DHT22;35067;48.134;8.378;2022-08-24T13:42:58;38.30;15.40
49236;DHT22;35067;48.134;8.378;2022-08-24T13:45:39;37.40;15.40
49236;DHT22;35067;48.134;8.378;2022-08-24T13:48:07;35.90;16.40
49236;DHT22;35067;48.134;8.378;2022-08-24T13:50:36;37.20;15.60
49236;DHT22;35067;48.134;8.378;2022-08-24T13:59:35;38.80;14.90
49236;DHT22;35067;48.134;8.378;2022-08-24T14:02:02;38.50;13.90
49236;DHT22;35067;48.134;8.378;2022-08-24T14:09:25;39.90;14.10
49236;DHT22;35067;48.134;8.378;2022-08-24T14:12:02;40.40;13.80
49236;DHT22;35067;48.134;8.378;2022-08-24T14:22:26;40.60;14.30
49236;DHT22;35067;48.134;8.378;2022-08-24T14:24:44;40.60;14.30
49236;DHT22;35067;48.134;8.378;2022-08-24T14:26:56;40.40;13.50
49236;DHT22;35067;48.134;8.378;2022-08-24T14:31:21;40.80;13.20
49236;DHT22;35067;48.134;8.378;2022-08-24T14:33:32;41.70;13.10
49236;DHT22;35067;48.134;8.378;2022-08-24T14:35:42;42.60;12.40
49236;DHT22;35067;48.134;8.378;2022-08-24T14:52:50;39.70;13.90
49236;DHT22;35067;48.134;8.378;2022-08-24T14:57:45;39.20;14.00
49236;DHT22;35067;48.134;8.378;2022-08-24T15:04:42;39.70;13.40
49236;DHT22;35067;48.134;8.378;2022-08-24T15:06:52;38.60;14.60
49236;DHT22;35067;48.134;8.378;2022-08-24T15:11:25;38.20;15.10
49236;DHT22;35067;48.134;8.378;2022-08-24T15:21:02;36.00;17.60
49236;DHT22;35067;48.134;8.378;2022-08-24T15:23:15;36.20;16.60
49236;DHT22;35067;48.134;8.378;2022-08-24T15:25:43;36.10;16.30
49236;DHT22;35067;48.134;8.378;2022-08-24T15:27:56;35.80;16.90
49236;DHT22;35067;48.134;8.378;2022-08-24T15:30:04;35.80;17.10
49236;DHT22;35067;48.134;8.378;2022-08-24T15:32:11;33.90;18.60
49236;DHT22;35067;48.134;8.378;2022-08-24T15:34:12;34.10;18.20
49236;DHT22;35067;48.134;8.378;2022-08-24T15:36:15;34.80;17.70
49236;DHT22;35067;48.134;8.378;2022-08-24T15:38:31;34.60;18.10
49236;DHT22;35067;48.134;8.378;2022-08-24T15:40:33;35.30;17.60
49236;DHT22;35067;48.134;8.378;2022-08-24T15:42:34;34.40;19.10
49236;DHT22;35067;48.134;8.378;2022-08-24T15:44:36;34.30;18.80
49236;DHT22;35067;48.134;8.378;2022-08-24T15:46:43;34.00;19.00
49236;DHT22;35067;48.134;8.378;2022-08-24T15:48:48;34.30;19.00
49236;DHT22;35067;48.134;8.378;2022-08-24T15:50:52;35.30;17.80
49236;DHT22;35067;48.134;8.378;2022-08-24T15:53:00;35.30;18.40
49236;DHT22;35067;48.134;8.378;2022-08-24T15:55:05;34.80;18.60
49236;DHT22;35067;48.134;8.378;2022-08-24T15:57:27;34.60;18.30
49236;DHT22;35067;48.134;8.378;2022-08-24T16:01:39;33.60;19.70
49236;DHT22;35067;48.134;8.378;2022-08-24T16:06:26;33.90;19.80
49236;DHT22;35067;48.134;8.378;2022-08-24T16:08:53;33.50;20.30
49236;DHT22;35067;48.134;8.378;2022-08-24T16:11:18;32.90;20.10
49236;DHT22;35067;48.134;8.378;2022-08-24T16:13:30;33.10;19.90
49236;DHT22;35067;48.134;8.378;2022-08-24T16:15:31;33.10;20.00
49236;DHT22;35067;48.134;8.378;2022-08-24T16:17:36;32.80;21.40
49236;DHT22;35067;48.134;8.378;2022-08-24T16:19:39;33.10;20.80
49236;DHT22;35067;48.134;8.378;2022-08-24T16:26:28;33.40;20.30
49236;DHT22;35067;48.134;8.378;2022-08-24T16:28:34;34.00;19.60
49236;DHT22;35067;48.134;8.378;2022-08-24T16:32:55;32.90;21.10
49236;DHT22;35067;48.134;8.378;2022-08-24T16:37:06;32.30;21.80
49236;DHT22;35067;48.134;8.378;2022-08-24T16:39:10;32.30;23.00
49236;DHT22;35067;48.134;8.378;2022-08-24T16:41:11;32.60;21.60
49236;DHT22;35067;48.134;8.378;2022-08-24T16:43:12;33.60;21.20
49236;DHT22;35067;48.134;8.378;2022-08-24T16:45:17;33.40;21.30